createdAt,value
2019-02-24T00:01:58.567Z,98.10
2019-02-24T00:04:27.949Z,98.20
2019-02-24T00:06:57.240Z,98.20
2019-02-24T00:09:26.544Z,98.20
2019-02-24T00:11:55.969Z,98.10
2019-02-24T00:14:25.328Z,98.10
2019-02-24T00:16:54.741Z,98.60
2019-02-24T00:19:24.162Z,98.20
2019-02-24T00:21:53.459Z,98.30
2019-02-24T00:24:22.837Z,98.40
2019-02-24T00:26:52.174Z,98.50
2019-02-24T00:29:21.573Z,98.60
2019-02-24T00:31:50.878Z,98.70
2019-02-24T00:34:20.276Z,98.90
2019-02-24T00:36:49.584Z,99.00
2019-02-24T00:39:18.872Z,99.40
2019-02-24T00:41:48.211Z,99.50
2019-02-24T00:44:17.509Z,99.90
2019-02-24T00:46:46.862Z,99.90
2019-02-24T00:49:16.233Z,99.90
2019-02-24T00:51:45.663Z,99.90
2019-02-24T00:54:14.960Z,99.90
2019-02-24T00:56:44.278Z,99.90
2019-02-24T00:59:13.648Z,99.90
2019-02-24T01:01:43.028Z,99.80
2019-02-24T01:04:12.385Z,99.80
2019-02-24T01:06:41.678Z,99.60
2019-02-24T01:09:10.980Z,99.20
2019-02-24T01:11:40.367Z,99.10
2019-02-24T01:14:09.757Z,99.40
2019-02-24T01:16:39.282Z,99.60
2019-02-24T01:19:08.917Z,99.90
2019-02-24T01:21:38.301Z,99.90
2019-02-24T01:24:07.620Z,99.90
2019-02-24T01:26:36.990Z,99.90
2019-02-24T01:29:06.366Z,99.90
2019-02-24T01:31:35.744Z,99.90
2019-02-24T01:34:05.064Z,99.90
2019-02-24T01:36:34.381Z,99.90
2019-02-24T01:39:04.314Z,99.90
2019-02-24T01:41:33.659Z,99.90
2019-02-24T01:44:03.073Z,99.90
2019-02-24T01:46:32.364Z,99.90
2019-02-24T01:49:01.728Z,99.90
2019-02-24T01:51:31.119Z,99.90
2019-02-24T01:54:00.409Z,99.80
2019-02-24T01:56:29.813Z,99.70
2019-02-24T01:58:59.665Z,99.90
2019-02-24T02:01:29.035Z,99.90
2019-02-24T02:03:58.436Z,99.90
2019-02-24T02:06:27.844Z,99.90
2019-02-24T02:08:57.142Z,99.90
2019-02-24T02:11:26.538Z,99.90
2019-02-24T02:13:55.934Z,99.90
2019-02-24T02:16:25.291Z,99.90
2019-02-24T02:18:54.682Z,99.90
2019-02-24T02:21:24.069Z,99.90
2019-02-24T02:23:53.451Z,99.90
2019-02-24T02:26:22.812Z,99.90
2019-02-24T02:28:52.192Z,99.90
2019-02-24T02:31:21.575Z,99.90
2019-02-24T02:33:50.890Z,99.90
2019-02-24T02:36:20.202Z,99.60
2019-02-24T02:38:50.167Z,99.30
2019-02-24T02:41:19.463Z,99.50
2019-02-24T02:43:48.849Z,99.80
2019-02-24T02:46:18.196Z,99.90
2019-02-24T02:48:47.550Z,99.90
2019-02-24T02:51:16.856Z,99.90
2019-02-24T02:53:46.186Z,99.90
2019-02-24T02:56:15.590Z,99.90
2019-02-24T02:58:53.614Z,99.90
2019-02-24T03:01:15.937Z,99.90
2019-02-24T03:03:45.259Z,99.90
2019-02-24T03:06:20.086Z,99.90
2019-02-24T03:08:51.593Z,99.90
2019-02-24T03:11:20.937Z,99.90
2019-02-24T03:13:50.325Z,99.90
2019-02-24T03:16:23.989Z,99.90
2019-02-24T03:18:53.336Z,99.90
2019-02-24T03:21:22.615Z,99.90
2019-02-24T03:23:52.000Z,99.90
2019-02-24T03:26:21.306Z,99.90
2019-02-24T03:28:50.741Z,99.90
2019-02-24T03:31:20.077Z,99.90
2019-02-24T03:33:49.384Z,99.90
2019-02-24T03:36:18.828Z,99.90
2019-02-24T03:38:48.209Z,99.90
2019-02-24T03:41:17.620Z,99.90
2019-02-24T03:43:46.987Z,99.90
2019-02-24T03:46:17.018Z,99.90
2019-02-24T03:48:46.324Z,99.90
2019-02-24T03:51:15.655Z,99.90
2019-02-24T03:53:45.088Z,99.90
2019-02-24T03:56:14.415Z,99.90
2019-02-24T03:58:44.663Z,99.90
2019-02-24T04:01:14.058Z,99.90
2019-02-24T04:03:43.416Z,99.90
2019-02-24T04:06:12.793Z,99.90
2019-02-24T04:08:42.215Z,99.90
2019-02-24T04:11:11.574Z,99.90
2019-02-24T04:13:40.929Z,99.90
2019-02-24T04:16:10.287Z,99.90
2019-02-24T04:18:39.618Z,99.90
2019-02-24T04:21:08.937Z,99.90
2019-02-24T04:23:38.295Z,99.90
2019-02-24T04:26:08.192Z,99.90
2019-02-24T04:28:37.528Z,99.90
2019-02-24T04:31:06.922Z,99.90
2019-02-24T04:33:36.311Z,99.90
2019-02-24T04:36:05.714Z,99.90
2019-02-24T04:38:35.141Z,99.90
2019-02-24T04:41:04.436Z,99.90
2019-02-24T04:43:33.798Z,99.90
2019-02-24T04:46:03.065Z,99.90
2019-02-24T04:48:32.421Z,99.90
2019-02-24T04:51:01.893Z,99.90
2019-02-24T04:53:31.308Z,99.90
2019-02-24T04:56:00.614Z,99.90
2019-02-24T04:58:30.003Z,99.90
2019-02-24T05:00:59.410Z,99.90
2019-02-24T05:03:28.805Z,99.90
2019-02-24T05:05:58.255Z,99.90
2019-02-24T05:08:27.588Z,99.90
2019-02-24T05:10:56.976Z,99.90
2019-02-24T05:13:26.364Z,99.90
2019-02-24T05:15:55.801Z,99.90
2019-02-24T05:18:25.113Z,99.90
2019-02-24T05:20:54.534Z,99.90
2019-02-24T05:23:23.876Z,99.90
2019-02-24T05:25:53.221Z,99.90
2019-02-24T05:28:22.567Z,99.90
2019-02-24T05:30:52.044Z,99.90
2019-02-24T05:33:21.375Z,99.90
2019-02-24T05:35:50.683Z,99.90
2019-02-24T05:38:20.067Z,99.90
2019-02-24T05:40:49.441Z,99.90
2019-02-24T05:43:18.764Z,99.90
2019-02-24T05:45:48.184Z,99.90
2019-02-24T05:48:17.559Z,99.90
2019-02-24T05:50:46.974Z,99.90
2019-02-24T05:53:16.375Z,99.90
2019-02-24T05:55:45.753Z,99.90
2019-02-24T05:58:15.166Z,99.90
2019-02-24T06:00:44.529Z,99.90
2019-02-24T06:03:13.924Z,99.90
2019-02-24T06:05:43.325Z,99.90
2019-02-24T06:08:12.701Z,99.90
2019-02-24T06:10:42.002Z,99.90
2019-02-24T06:13:11.425Z,99.90
2019-02-24T06:15:40.782Z,99.90
2019-02-24T06:18:10.076Z,99.90
2019-02-24T06:20:39.393Z,99.90
2019-02-24T06:23:08.781Z,99.90
2019-02-24T06:25:38.065Z,99.90
2019-02-24T06:28:07.394Z,99.90
2019-02-24T06:30:36.740Z,99.90
2019-02-24T06:33:06.115Z,99.90
2019-02-24T06:35:36.063Z,99.90
2019-02-24T06:38:05.702Z,99.90
2019-02-24T06:40:35.136Z,99.90
2019-02-24T06:43:04.453Z,99.90
2019-02-24T06:45:33.856Z,99.90
2019-02-24T06:48:03.252Z,99.90
2019-02-24T06:50:51.555Z,99.90
2019-02-24T06:53:21.317Z,99.90
2019-02-24T06:55:50.684Z,99.90
2019-02-24T06:58:20.081Z,99.90
2019-02-24T07:00:49.469Z,99.90
2019-02-24T07:03:18.762Z,99.90
2019-02-24T07:05:48.193Z,99.90
2019-02-24T07:08:17.564Z,99.90
2019-02-24T07:10:46.862Z,99.90
2019-02-24T07:13:16.233Z,99.90
2019-02-24T07:15:45.589Z,99.90
2019-02-24T07:18:15.186Z,99.90
2019-02-24T07:20:44.525Z,99.90
2019-02-24T07:23:13.901Z,99.90
2019-02-24T07:25:43.285Z,99.90
2019-02-24T07:28:12.642Z,99.90
2019-02-24T07:30:42.039Z,99.90
2019-02-24T07:33:12.465Z,99.90
2019-02-24T07:35:42.038Z,99.90
2019-02-24T07:38:11.400Z,99.90
2019-02-24T07:40:40.902Z,99.90
2019-02-24T07:43:10.290Z,99.90
2019-02-24T07:45:39.838Z,99.90
2019-02-24T07:48:09.152Z,99.90
2019-02-24T07:50:38.477Z,99.90
2019-02-24T07:53:07.815Z,99.90
2019-02-24T07:55:37.186Z,99.90
2019-02-24T07:58:06.654Z,99.90
2019-02-24T08:00:36.041Z,99.90
2019-02-24T08:03:05.243Z,99.90
2019-02-24T08:05:34.581Z,99.90
2019-02-24T08:08:04.257Z,99.90
2019-02-24T08:10:33.632Z,99.90
2019-02-24T08:13:04.347Z,99.90
2019-02-24T08:15:33.761Z,99.90
2019-02-24T08:18:03.121Z,99.90
2019-02-24T08:20:33.470Z,99.90
2019-02-24T08:23:02.940Z,99.90
2019-02-24T08:25:32.354Z,99.90
2019-02-24T08:28:01.680Z,99.90
2019-02-24T08:30:30.966Z,99.90
2019-02-24T08:33:00.307Z,99.90
2019-02-24T08:35:29.761Z,99.90
2019-02-24T08:37:59.166Z,99.90
2019-02-24T08:40:28.606Z,99.90
2019-02-24T08:42:57.930Z,98.90
2019-02-24T08:45:27.229Z,99.10
2019-02-24T08:47:56.859Z,99.00
2019-02-24T08:50:26.192Z,98.80
2019-02-24T08:52:55.985Z,98.20
2019-02-24T08:55:25.569Z,98.10
2019-02-24T08:57:54.913Z,98.10
2019-02-24T09:00:24.351Z,97.80
2019-02-24T09:02:53.837Z,97.50
2019-02-24T09:05:23.223Z,95.90
2019-02-24T09:07:52.634Z,95.20
2019-02-24T09:10:22.214Z,94.50
2019-02-24T09:12:51.557Z,93.80
2019-02-24T09:15:21.005Z,93.20
2019-02-24T09:17:50.393Z,93.20
2019-02-24T09:20:19.711Z,92.80
2019-02-24T09:22:49.101Z,93.10
2019-02-24T09:25:18.485Z,92.90
2019-02-24T09:27:47.800Z,92.20
2019-02-24T09:30:17.196Z,91.40
2019-02-24T09:32:46.637Z,91.20
2019-02-24T09:35:16.049Z,90.80
2019-02-24T09:37:45.475Z,90.80
2019-02-24T09:40:14.766Z,89.70
2019-02-24T09:42:44.177Z,88.40
2019-02-24T09:45:13.557Z,84.70
2019-02-24T09:47:46.907Z,80.60
2019-02-24T09:50:14.049Z,78.80
2019-02-24T09:52:43.366Z,76.00
2019-02-24T09:55:15.273Z,69.70
2019-02-24T09:57:44.698Z,67.50
2019-02-24T10:00:14.242Z,67.10
2019-02-24T10:02:43.598Z,64.20
2019-02-24T10:05:13.073Z,59.70
2019-02-24T10:07:42.458Z,56.70
2019-02-24T10:10:11.805Z,57.60
2019-02-24T10:12:42.103Z,55.20
2019-02-24T10:15:11.548Z,53.60
2019-02-24T10:17:41.636Z,55.70
2019-02-24T10:20:11.182Z,52.80
2019-02-24T10:22:40.581Z,55.00
2019-02-24T10:25:09.946Z,53.10
2019-02-24T10:27:39.377Z,53.70
2019-02-24T10:30:09.333Z,54.40
2019-02-24T10:32:38.729Z,50.00
2019-02-24T10:35:08.398Z,52.00
2019-02-24T10:37:37.797Z,53.40
2019-02-24T10:40:09.037Z,56.40
2019-02-24T10:42:38.510Z,56.20
2019-02-24T10:45:10.494Z,57.50
2019-02-24T10:47:39.880Z,55.50
2019-02-24T10:50:11.762Z,52.00
2019-02-24T10:52:41.425Z,49.40
2019-02-24T10:55:11.652Z,47.10
2019-02-24T10:57:41.077Z,47.90
2019-02-24T11:00:12.381Z,45.80
2019-02-24T11:02:41.818Z,45.50
2019-02-24T11:05:11.341Z,46.50
2019-02-24T11:07:40.721Z,45.40
2019-02-24T11:10:10.244Z,44.90
2019-02-24T11:12:39.941Z,45.00
2019-02-24T11:15:09.406Z,43.30
2019-02-24T11:17:38.805Z,42.90
2019-02-24T11:20:09.117Z,43.00
2019-02-24T11:22:38.402Z,43.50
2019-02-24T11:25:08.491Z,41.20
2019-02-24T11:27:37.853Z,40.20
2019-02-24T11:30:08.411Z,40.40
2019-02-24T11:32:37.740Z,41.40
2019-02-24T11:35:07.398Z,39.50
2019-02-24T11:37:36.703Z,39.50
2019-02-24T11:40:07.185Z,40.70
2019-02-24T11:42:36.545Z,37.90
2019-02-24T11:45:05.986Z,35.60
2019-02-24T11:47:35.309Z,37.00
2019-02-24T11:50:04.813Z,38.90
2019-02-24T11:52:34.199Z,39.50
2019-02-24T11:55:03.616Z,36.20
2019-02-24T11:57:33.036Z,36.80
2019-02-24T12:00:03.037Z,36.00
2019-02-24T12:02:34.731Z,36.90
2019-02-24T12:05:03.355Z,38.60
2019-02-24T12:07:32.689Z,37.30
2019-02-24T12:10:02.046Z,36.50
2019-02-24T12:12:31.580Z,35.70
2019-02-24T12:15:00.967Z,35.40
2019-02-24T12:17:30.666Z,35.20
2019-02-24T12:20:00.100Z,35.60
2019-02-24T12:22:29.595Z,35.40
2019-02-24T12:24:58.908Z,35.10
2019-02-24T12:27:28.273Z,34.10
2019-02-24T12:29:57.617Z,33.40
2019-02-24T12:32:26.945Z,32.80
2019-02-24T12:34:56.348Z,33.30
2019-02-24T12:37:25.775Z,33.70
2019-02-24T12:39:57.311Z,33.70
2019-02-24T12:42:26.730Z,34.30
2019-02-24T12:44:56.166Z,33.80
2019-02-24T12:47:25.598Z,35.20
2019-02-24T12:50:02.901Z,34.20
2019-02-24T12:52:26.004Z,36.50
2019-02-24T12:54:55.296Z,37.10
2019-02-24T12:57:24.713Z,37.20
2019-02-24T12:59:54.005Z,38.90
2019-02-24T13:02:23.359Z,38.10
2019-02-24T13:04:52.800Z,38.40
2019-02-24T13:07:22.197Z,38.90
2019-02-24T13:09:51.585Z,39.20
2019-02-24T13:12:21.001Z,40.30
2019-02-24T13:14:50.320Z,42.40
2019-02-24T13:17:20.020Z,43.10
2019-02-24T13:19:49.698Z,42.30
2019-02-24T13:22:19.352Z,40.90
2019-02-24T13:24:49.891Z,41.60
2019-02-24T13:27:19.284Z,42.40
2019-02-24T13:29:48.632Z,41.40
2019-02-24T13:32:17.953Z,40.30
2019-02-24T13:34:47.741Z,39.70
2019-02-24T13:37:17.136Z,39.90
2019-02-24T13:39:46.441Z,39.60
2019-02-24T13:42:15.841Z,41.10
2019-02-24T13:44:45.253Z,40.60
2019-02-24T13:47:14.653Z,38.50
2019-02-24T13:49:44.251Z,39.70
2019-02-24T13:52:13.599Z,38.80
2019-02-24T13:54:43.003Z,39.40
2019-02-24T13:57:12.470Z,39.90
2019-02-24T13:59:41.925Z,40.40
2019-02-24T14:02:11.253Z,39.40
2019-02-24T14:04:40.613Z,39.90
2019-02-24T14:07:09.920Z,40.60
2019-02-24T14:09:39.207Z,40.00
2019-02-24T14:12:08.617Z,39.20
2019-02-24T14:14:48.730Z,39.10
2019-02-24T14:17:11.371Z,39.30
2019-02-24T14:19:40.727Z,37.90
2019-02-24T14:22:10.025Z,37.90
2019-02-24T14:24:39.530Z,39.20
2019-02-24T14:27:08.910Z,39.20
2019-02-24T14:29:38.233Z,40.10
2019-02-24T14:32:07.684Z,38.70
2019-02-24T14:34:37.184Z,38.90
2019-02-24T14:37:06.542Z,38.60
2019-02-24T14:39:36.345Z,37.50
2019-02-24T14:42:05.665Z,38.20
2019-02-24T14:44:35.253Z,38.80
2019-02-24T14:47:05.378Z,38.10
2019-02-24T14:49:37.305Z,38.70
2019-02-24T14:52:06.889Z,39.50
2019-02-24T14:54:36.514Z,39.20
2019-02-24T14:57:06.056Z,38.50
2019-02-24T14:59:35.751Z,39.00
2019-02-24T15:02:05.152Z,38.30
2019-02-24T15:04:35.378Z,38.90
2019-02-24T15:07:05.100Z,38.80
2019-02-24T15:09:35.413Z,36.40
2019-02-24T15:12:05.110Z,36.50
2019-02-24T15:14:34.817Z,36.80
2019-02-24T15:17:04.952Z,35.70
2019-02-24T15:19:34.490Z,35.50
2019-02-24T15:22:04.119Z,35.00
2019-02-24T15:24:33.806Z,34.90
2019-02-24T15:27:03.153Z,34.90
2019-02-24T15:29:32.803Z,35.80
2019-02-24T15:32:02.971Z,35.10
2019-02-24T15:34:32.256Z,34.90
2019-02-24T15:37:01.569Z,34.80
2019-02-24T15:39:30.998Z,35.00
2019-02-24T15:42:00.466Z,35.40
2019-02-24T15:44:29.791Z,35.90
2019-02-24T15:47:00.082Z,36.20
2019-02-24T15:49:29.486Z,36.50
2019-02-24T15:51:58.909Z,36.20
2019-02-24T15:54:28.306Z,36.90
2019-02-24T15:56:57.605Z,36.80
2019-02-24T15:59:27.000Z,37.10
2019-02-24T16:01:56.463Z,37.50
2019-02-24T16:04:25.855Z,37.20
2019-02-24T16:06:55.226Z,36.50
2019-02-24T16:09:25.040Z,36.60
2019-02-24T16:11:54.500Z,37.00
2019-02-24T16:14:23.842Z,37.30
2019-02-24T16:16:53.276Z,36.80
2019-02-24T16:19:22.611Z,37.50
2019-02-24T16:21:52.088Z,37.40
2019-02-24T16:24:21.470Z,37.50
2019-02-24T16:26:51.250Z,37.80
2019-02-24T16:29:20.564Z,38.00
2019-02-24T16:31:49.893Z,37.80
2019-02-24T16:34:19.180Z,38.00
2019-02-24T16:36:48.552Z,38.50
2019-02-24T16:39:17.916Z,38.70
2019-02-24T16:41:47.452Z,38.40
2019-02-24T16:44:16.890Z,39.10
2019-02-24T16:46:46.444Z,39.60
2019-02-24T16:49:15.760Z,39.20
2019-02-24T16:51:45.153Z,39.80
2019-02-24T16:54:14.542Z,40.70
2019-02-24T16:56:43.879Z,41.00
2019-02-24T16:59:13.241Z,41.80
2019-02-24T17:01:42.721Z,41.90
2019-02-24T17:04:12.456Z,42.10
2019-02-24T17:06:42.425Z,42.90
2019-02-24T17:09:11.929Z,43.10
2019-02-24T17:11:41.229Z,43.70
2019-02-24T17:14:10.606Z,44.90
2019-02-24T17:16:40.093Z,45.40
2019-02-24T17:19:09.508Z,45.90
2019-02-24T17:21:41.233Z,46.50
2019-02-24T17:24:10.663Z,46.90
2019-02-24T17:26:40.078Z,46.70
2019-02-24T17:29:09.487Z,46.90
2019-02-24T17:31:38.865Z,47.00
2019-02-24T17:34:08.237Z,47.10
2019-02-24T17:36:37.529Z,47.50
2019-02-24T17:39:07.612Z,48.00
2019-02-24T17:41:36.984Z,48.70
2019-02-24T17:44:06.336Z,49.40
2019-02-24T17:46:36.233Z,50.60
2019-02-24T17:49:05.557Z,50.00
2019-02-24T17:51:34.869Z,49.80
2019-02-24T17:54:04.274Z,50.40
2019-02-24T17:56:33.678Z,51.00
2019-02-24T17:59:03.229Z,51.50
2019-02-24T18:01:32.641Z,51.80
2019-02-24T18:04:02.114Z,52.10
2019-02-24T18:06:31.493Z,52.00
2019-02-24T18:09:00.836Z,52.00
2019-02-24T18:11:30.213Z,51.80
2019-02-24T18:13:59.548Z,51.70
2019-02-24T18:16:29.048Z,51.40
2019-02-24T18:18:58.446Z,51.70
2019-02-24T18:21:27.765Z,51.90
2019-02-24T18:23:57.202Z,52.50
2019-02-24T18:26:27.420Z,53.40
2019-02-24T18:28:56.815Z,54.00
2019-02-24T18:31:26.233Z,54.10
2019-02-24T18:33:55.612Z,54.30
2019-02-24T18:36:24.996Z,54.20
2019-02-24T18:38:54.471Z,54.60
2019-02-24T18:41:23.873Z,55.00
2019-02-24T18:43:53.578Z,54.60
2019-02-24T18:46:23.001Z,54.20
2019-02-24T18:48:52.421Z,54.90
2019-02-24T18:51:21.849Z,55.20
2019-02-24T18:53:51.277Z,55.50
2019-02-24T18:56:20.613Z,55.00
2019-02-24T18:58:50.002Z,54.80
2019-02-24T19:01:19.352Z,54.60
2019-02-24T19:03:57.183Z,54.00
2019-02-24T19:06:20.258Z,54.00
2019-02-24T19:08:49.592Z,54.50
2019-02-24T19:11:18.905Z,54.80
2019-02-24T19:13:48.295Z,55.30
2019-02-24T19:16:17.690Z,55.90
2019-02-24T19:18:46.991Z,56.30
2019-02-24T19:21:16.404Z,57.10
2019-02-24T19:23:45.806Z,57.50
2019-02-24T19:26:15.198Z,58.00
2019-02-24T19:28:44.504Z,58.40
2019-02-24T19:31:13.905Z,59.00
2019-02-24T19:33:43.222Z,59.30
2019-02-24T19:36:12.550Z,59.80
2019-02-24T19:38:41.861Z,60.20
2019-02-24T19:41:11.260Z,60.00
2019-02-24T19:43:40.563Z,60.10
2019-02-24T19:46:10.400Z,60.20
2019-02-24T19:48:41.922Z,60.70
2019-02-24T19:51:10.706Z,61.50
2019-02-24T19:53:40.029Z,61.80
2019-02-24T19:56:09.344Z,62.40
2019-02-24T19:58:38.831Z,62.40
2019-02-24T20:01:08.187Z,63.30
2019-02-24T20:03:37.598Z,63.70
2019-02-24T20:06:06.918Z,64.30
2019-02-24T20:08:36.339Z,63.80
2019-02-24T20:11:05.745Z,64.10
2019-02-24T20:13:35.169Z,64.40
2019-02-24T20:16:04.525Z,64.80
2019-02-24T20:18:33.923Z,65.00
2019-02-24T20:21:03.289Z,65.30
2019-02-24T20:23:32.623Z,65.70
2019-02-24T20:26:02.166Z,65.80
2019-02-24T20:28:31.472Z,66.30
2019-02-24T20:31:00.913Z,66.70
2019-02-24T20:33:30.269Z,67.20
2019-02-24T20:35:59.632Z,68.20
2019-02-24T20:38:29.002Z,68.80
2019-02-24T20:40:58.310Z,69.00
2019-02-24T20:43:27.616Z,69.60
2019-02-24T20:45:56.986Z,69.90
2019-02-24T20:48:26.323Z,69.40
2019-02-24T20:50:55.660Z,69.60
2019-02-24T20:53:25.057Z,70.20
2019-02-24T20:55:54.360Z,70.00
2019-02-24T20:58:23.757Z,70.60
2019-02-24T21:00:53.181Z,70.90
2019-02-24T21:03:22.678Z,71.30
2019-02-24T21:05:52.782Z,71.70
2019-02-24T21:08:22.225Z,71.70
2019-02-24T21:10:51.693Z,72.20
2019-02-24T21:13:21.014Z,72.60
2019-02-24T21:15:50.348Z,72.30
2019-02-24T21:18:19.683Z,70.80
2019-02-24T21:20:49.049Z,70.50
2019-02-24T21:23:18.484Z,69.70
2019-02-24T21:25:48.134Z,69.60
2019-02-24T21:28:17.531Z,70.30
2019-02-24T21:30:46.848Z,70.90
2019-02-24T21:33:16.143Z,71.20
2019-02-24T21:35:46.614Z,71.80
2019-02-24T21:38:16.115Z,72.80
2019-02-24T21:40:45.437Z,73.40
2019-02-24T21:43:14.838Z,73.70
2019-02-24T21:45:44.797Z,73.90
2019-02-24T21:48:14.076Z,74.50
2019-02-24T21:50:43.382Z,74.90
2019-02-24T21:53:12.717Z,75.00
2019-02-24T21:55:42.140Z,74.60
2019-02-24T21:58:11.453Z,75.20
2019-02-24T22:00:40.894Z,75.60
2019-02-24T22:03:10.276Z,76.00
2019-02-24T22:05:39.640Z,75.90
2019-02-24T22:08:09.028Z,75.90
2019-02-24T22:10:38.347Z,76.20
2019-02-24T22:13:07.743Z,76.60
2019-02-24T22:15:37.159Z,76.70
2019-02-24T22:18:06.581Z,77.00
2019-02-24T22:20:36.009Z,77.30
2019-02-24T22:23:05.395Z,77.70
2019-02-24T22:25:34.702Z,78.00
2019-02-24T22:28:04.029Z,78.40
2019-02-24T22:30:33.421Z,78.60
2019-02-24T22:33:02.881Z,78.70
2019-02-24T22:35:32.338Z,79.10
2019-02-24T22:38:01.701Z,79.60
2019-02-24T22:40:31.059Z,79.90
2019-02-24T22:43:00.346Z,80.00
2019-02-24T22:45:29.796Z,80.10
2019-02-24T22:47:59.183Z,80.40
2019-02-24T22:50:28.666Z,80.80
2019-02-24T22:52:58.004Z,81.10
2019-02-24T22:55:27.369Z,81.00
2019-02-24T22:57:56.681Z,81.20
2019-02-24T23:00:45.723Z,81.20
2019-02-24T23:03:15.102Z,81.70
2019-02-24T23:05:44.421Z,82.10
2019-02-24T23:08:13.838Z,81.80
2019-02-24T23:10:43.154Z,81.80
2019-02-24T23:13:12.625Z,82.10
2019-02-24T23:15:41.997Z,82.40
2019-02-24T23:18:11.289Z,82.40
2019-02-24T23:20:40.599Z,81.20
2019-02-24T23:23:10.077Z,81.50
2019-02-24T23:25:39.448Z,81.80
2019-02-24T23:28:08.825Z,83.20
2019-02-24T23:30:38.209Z,82.80
2019-02-24T23:33:07.637Z,83.20
2019-02-24T23:35:37.055Z,83.50
2019-02-24T23:38:06.409Z,84.10
2019-02-24T23:40:35.783Z,84.00
2019-02-24T23:43:05.172Z,84.60
2019-02-24T23:45:34.489Z,84.60
2019-02-24T23:48:03.989Z,84.50
2019-02-24T23:50:33.277Z,84.80
2019-02-24T23:53:02.681Z,84.80
2019-02-24T23:55:31.987Z,84.80
